Time;durP1;ratioP1;P1;durP2;ratioP2;P2;SDS_P1;SDS_P2;PMS_P1;PMS_P2;Temp;Humidity;BMP_temperature;BMP_pressure;BME280_temperature;BME280_humidity;BME280_pressure;Samples;Min_cycle;Max_cycle;Signal;HPM_P1;HPM_P2
2023/09/22 00:01:12;;;;;;;3.08;2.70;;;14.10;99.90;;;;;;4996373;28;20169;-63
2023/09/22 00:03:38;;;;;;;2.40;2.20;;;14.10;99.90;;;;;;4995676;28;20179;-63
2023/09/22 00:06:04;;;;;;;4.60;2.40;;;14.10;99.90;;;;;;4996575;28;20215;-63
2023/09/22 00:08:30;;;;;;;4.40;2.08;;;14.10;99.90;;;;;;4995704;28;20298;-63
2023/09/22 00:10:55;;;;;;;5.03;2.65;;;14.20;99.90;;;;;;4995968;28;20251;-62
2023/09/22 00:13:21;;;;;;;2.67;2.35;;;14.10;99.90;;;;;;4996010;28;20208;-63
2023/09/22 00:15:47;;;;;;;3.17;2.55;;;14.10;99.90;;;;;;4995898;28;20169;-63
2023/09/22 00:18:13;;;;;;;3.15;2.40;;;14.10;99.90;;;;;;4995638;28;20306;-63
2023/09/22 00:20:39;;;;;;;2.67;2.47;;;14.20;99.90;;;;;;4995933;28;20226;-63
2023/09/22 00:23:04;;;;;;;3.90;2.63;;;14.20;99.90;;;;;;4995704;28;20185;-63
2023/09/22 00:25:31;;;;;;;2.80;2.58;;;14.10;99.90;;;;;;4995801;28;20188;-63
2023/09/22 00:27:57;;;;;;;2.90;2.63;;;14.10;99.90;;;;;;4995596;28;20200;-63
2023/09/22 00:30:23;;;;;;;3.00;2.70;;;14.10;99.90;;;;;;4995405;28;20193;-63
2023/09/22 00:32:49;;;;;;;2.75;2.55;;;14.10;99.90;;;;;;4995347;28;20515;-63
2023/09/22 00:35:15;;;;;;;5.45;2.78;;;14.20;99.90;;;;;;4995473;28;20173;-63
2023/09/22 00:37:41;;;;;;;3.28;2.83;;;14.20;99.90;;;;;;4995326;28;20195;-63
2023/09/22 00:40:15;;;;;;;2.72;2.53;;;14.20;99.90;;;;;;4995334;28;20180;-63
2023/09/22 00:42:41;;;;;;;4.00;2.70;;;14.20;99.90;;;;;;4995775;28;20183;-63
2023/09/22 00:45:07;;;;;;;5.43;2.90;;;14.20;99.90;;;;;;4995312;28;20183;-63
2023/09/22 00:47:34;;;;;;;5.05;2.88;;;14.20;99.90;;;;;;4994797;28;20196;-63
2023/09/22 00:50:01;;;;;;;2.88;2.67;;;14.20;99.90;;;;;;4977680;28;20297;-63
2023/09/22 00:52:27;;;;;;;3.85;2.70;;;14.20;99.90;;;;;;4995262;28;20182;-63
2023/09/22 00:54:56;;;;;;;4.88;3.13;;;14.10;99.90;;;;;;4995037;28;20173;-63
2023/09/22 00:57:21;;;;;;;3.17;2.95;;;14.10;99.90;;;;;;4994996;28;20196;-63
2023/09/22 00:59:47;;;;;;;3.30;3.00;;;14.10;99.90;;;;;;4995093;28;20173;-63
2023/09/22 01:02:13;;;;;;;8.02;3.17;;;14.10;99.90;;;;;;4995283;28;20176;-63
2023/09/22 01:04:39;;;;;;;3.67;3.33;;;14.10;99.90;;;;;;4994977;28;20207;-63
2023/09/22 01:07:06;;;;;;;4.00;3.22;;;14.10;99.90;;;;;;4994905;28;20231;-63
2023/09/22 01:09:31;;;;;;;5.07;3.50;;;14.10;99.90;;;;;;4995034;28;20196;-59
2023/09/22 01:11:57;;;;;;;3.42;3.13;;;14.10;99.90;;;;;;4977368;28;20187;-60
2023/09/22 01:14:23;;;;;;;3.63;3.33;;;14.10;99.90;;;;;;4994713;28;20196;-59
2023/09/22 01:16:51;;;;;;;4.38;3.08;;;14.10;99.90;;;;;;4994454;28;20508;-61
2023/09/22 01:19:17;;;;;;;5.10;2.90;;;14.10;99.90;;;;;;4994738;28;20347;-59
2023/09/22 01:21:48;;;;;;;4.15;3.53;;;14.10;99.90;;;;;;4994715;28;20184;-58
2023/09/22 01:24:14;;;;;;;4.88;3.08;;;14.00;99.90;;;;;;4995299;28;20173;-63
2023/09/22 01:26:40;;;;;;;3.10;2.90;;;14.00;99.90;;;;;;4994671;28;20633;-63
2023/09/22 01:29:06;;;;;;;3.67;3.38;;;14.00;99.90;;;;;;4994312;28;20207;-63
2023/09/22 01:31:33;;;;;;;4.40;3.17;;;14.00;99.90;;;;;;4994710;28;20188;-63
2023/09/22 01:34:01;;;;;;;3.60;3.03;;;14.00;99.90;;;;;;4994440;28;20264;-63
2023/09/22 01:36:27;;;;;;;5.20;3.25;;;14.00;99.90;;;;;;4994443;28;20249;-63
2023/09/22 01:38:53;;;;;;;3.58;3.03;;;13.90;99.90;;;;;;4994363;28;20196;-63
2023/09/22 01:41:19;;;;;;;5.20;3.10;;;13.90;99.90;;;;;;4994440;28;20184;-63
2023/09/22 01:43:45;;;;;;;6.25;3.67;;;13.90;99.90;;;;;;4994426;28;20181;-63
2023/09/22 01:46:10;;;;;;;3.67;2.95;;;13.90;99.90;;;;;;4994551;28;20564;-62
2023/09/22 01:48:36;;;;;;;3.83;2.80;;;13.80;99.90;;;;;;4993972;28;20219;-62
2023/09/22 01:51:02;;;;;;;3.38;3.08;;;13.70;99.90;;;;;;4976855;28;20183;-62
2023/09/22 01:53:28;;;;;;;4.05;2.80;;;13.70;99.90;;;;;;4994281;28;20172;-63
2023/09/22 01:55:55;;;;;;;3.45;3.13;;;13.70;99.90;;;;;;4994186;28;20175;-63
2023/09/22 01:58:21;;;;;;;4.22;3.20;;;13.70;99.90;;;;;;4994472;28;20193;-62
2023/09/22 02:00:48;;;;;;;5.57;2.85;;;13.60;99.90;;;;;;4994156;28;20235;-62
2023/09/22 02:03:14;;;;;;;4.57;3.58;;;13.60;99.90;;;;;;4994016;28;20176;-63
2023/09/22 02:05:40;;;;;;;4.72;3.30;;;13.60;99.90;;;;;;4993527;28;20176;-63
2023/09/22 02:08:08;;;;;;;6.68;3.20;;;13.50;99.90;;;;;;4994091;28;20220;-63
2023/09/22 02:10:34;;;;;;;8.38;3.08;;;13.50;99.90;;;;;;4993931;28;20200;-62
2023/09/22 02:12:59;;;;;;;4.15;3.45;;;13.60;99.90;;;;;;4993898;28;20203;-63
2023/09/22 02:15:25;;;;;;;4.28;3.00;;;13.60;99.90;;;;;;4976594;28;20259;-63
2023/09/22 02:17:51;;;;;;;5.60;3.38;;;13.70;99.90;;;;;;4993740;28;20199;-63
2023/09/22 02:22:45;;;;;;;3.58;2.80;;;13.70;99.90;;;;;;4993821;28;20168;-63
2023/09/22 02:25:12;;;;;;;7.15;3.45;;;13.70;99.90;;;;;;4976527;28;20177;-63
2023/09/22 02:27:38;;;;;;;6.40;3.35;;;13.70;99.90;;;;;;4994036;28;20199;-63
2023/09/22 02:30:04;;;;;;;3.58;3.28;;;13.70;99.90;;;;;;4993686;28;20568;-63
2023/09/22 02:32:30;;;;;;;6.63;3.85;;;13.60;99.90;;;;;;4993837;28;20169;-63
2023/09/22 02:34:57;;;;;;;4.25;3.50;;;13.60;99.90;;;;;;4993696;28;20257;-63
2023/09/22 02:37:23;;;;;;;5.95;3.30;;;13.50;99.90;;;;;;4993594;28;20227;-62
2023/09/22 02:39:49;;;;;;;8.07;3.72;;;13.50;99.90;;;;;;4994240;28;20235;-62
2023/09/22 02:42:15;;;;;;;4.05;3.40;;;13.40;99.90;;;;;;4993651;28;20188;-63
2023/09/22 02:44:40;;;;;;;5.75;3.30;;;13.40;99.90;;;;;;4993636;28;20537;-63
2023/09/22 02:47:06;;;;;;;5.65;3.75;;;13.40;99.90;;;;;;4993388;28;20183;-62
2023/09/22 02:49:32;;;;;;;5.60;3.63;;;13.40;99.90;;;;;;4994066;28;20283;-63
2023/09/22 02:51:58;;;;;;;5.80;3.50;;;13.40;99.90;;;;;;4993749;28;20199;-63
2023/09/22 02:54:23;;;;;;;6.22;3.60;;;13.40;99.90;;;;;;4994182;28;20248;-63
2023/09/22 02:56:49;;;;;;;12.10;4.13;;;13.40;99.90;;;;;;4993559;28;20637;-63
2023/09/22 02:59:15;;;;;;;6.25;3.58;;;13.50;99.90;;;;;;4993421;28;20199;-62
2023/09/22 03:01:41;;;;;;;4.90;3.67;;;13.50;99.90;;;;;;4993581;28;20200;-63
2023/09/22 03:04:10;;;;;;;7.22;3.75;;;13.50;99.90;;;;;;4993628;28;20264;-63
2023/09/22 03:06:37;;;;;;;6.05;3.60;;;13.50;99.90;;;;;;4993939;28;20171;-63
2023/09/22 03:09:10;;;;;;;4.22;3.63;;;13.50;99.90;;;;;;4993275;28;20350;-63
2023/09/22 03:11:38;;;;;;;5.70;4.10;;;13.50;99.90;;;;;;4993339;28;20235;-63
2023/09/22 03:14:04;;;;;;;7.80;4.45;;;13.60;99.90;;;;;;4993601;28;20251;-64
2023/09/22 03:16:31;;;;;;;4.90;4.20;;;13.50;99.90;;;;;;4993356;28;20172;-63
2023/09/22 03:18:57;;;;;;;5.55;4.13;;;13.60;99.90;;;;;;4996156;28;20196;-63
2023/09/22 03:21:26;;;;;;;6.88;4.80;;;13.60;99.90;;;;;;4997186;28;20179;-63
2023/09/22 03:23:53;;;;;;;8.20;4.57;;;13.60;99.90;;;;;;4996848;28;20227;-63
2023/09/22 03:26:20;;;;;;;5.22;4.28;;;13.50;99.90;;;;;;4979229;28;20177;-63
2023/09/22 03:28:47;;;;;;;6.57;4.35;;;13.50;99.90;;;;;;4996534;28;20203;-63
2023/09/22 03:31:13;;;;;;;8.00;4.05;;;13.40;99.90;;;;;;4996729;28;20215;-63
2023/09/22 03:33:41;;;;;;;6.72;4.03;;;13.40;99.90;;;;;;4996367;28;20177;-63
2023/09/22 03:36:10;;;;;;;5.28;3.97;;;13.40;99.90;;;;;;4996616;28;20196;-63
2023/09/22 03:38:46;;;;;;;5.57;3.80;;;13.30;99.90;;;;;;4996705;28;20201;-63
2023/09/22 03:41:14;;;;;;;6.18;3.83;;;13.30;99.90;;;;;;4978232;28;20195;-63
2023/09/22 03:43:41;;;;;;;9.88;4.30;;;13.30;99.90;;;;;;4996924;28;20185;-63
2023/09/22 03:46:08;;;;;;;4.55;3.63;;;13.20;99.90;;;;;;4996802;28;20177;-63
2023/09/22 03:48:33;;;;;;;6.78;3.78;;;13.20;99.90;;;;;;4996262;28;20196;-63
2023/09/22 03:50:59;;;;;;;6.75;3.35;;;13.10;99.90;;;;;;4996254;28;20215;-63
2023/09/22 03:53:27;;;;;;;7.93;3.92;;;13.10;99.90;;;;;;4996350;28;20722;-63
2023/09/22 03:55:53;;;;;;;10.60;3.70;;;13.10;99.90;;;;;;4978808;28;20188;-63
2023/09/22 03:58:20;;;;;;;4.80;3.70;;;13.10;99.90;;;;;;4996357;28;20208;-63
2023/09/22 04:00:46;;;;;;;5.30;3.65;;;13.20;99.90;;;;;;4996019;28;20621;-63
2023/09/22 04:03:13;;;;;;;3.80;3.17;;;13.00;99.90;;;;;;4978575;28;20185;-63
2023/09/22 04:05:41;;;;;;;5.10;3.20;;;13.00;99.90;;;;;;4996161;28;20179;-63
2023/09/22 04:08:07;;;;;;;5.80;3.58;;;12.90;99.90;;;;;;4995855;28;20212;-63
2023/09/22 04:10:33;;;;;;;9.98;3.58;;;12.90;99.90;;;;;;4996144;28;20196;-63
2023/09/22 04:12:59;;;;;;;4.90;3.63;;;13.00;99.90;;;;;;4978443;28;20188;-63
2023/09/22 04:15:25;;;;;;;4.63;3.22;;;13.00;99.90;;;;;;4995898;28;20260;-63
2023/09/22 04:17:51;;;;;;;3.58;3.25;;;12.90;99.90;;;;;;4995543;28;20192;-63
2023/09/22 04:20:27;;;;;;;3.75;3.38;;;12.90;99.90;;;;;;4995747;28;20191;-63
2023/09/22 04:22:53;;;;;;;7.60;3.13;;;12.90;99.90;;;;;;4995750;28;20687;-63
2023/09/22 04:25:29;;;;;;;3.63;2.97;;;12.90;99.90;;;;;;4995676;28;20212;-63
2023/09/22 04:28:07;;;;;;;3.95;2.90;;;12.80;99.90;;;;;;4995077;28;20199;-63
2023/09/22 04:30:35;;;;;;;7.47;3.00;;;12.80;99.90;;;;;;4995425;28;20625;-63
2023/09/22 04:33:01;;;;;;;6.32;3.47;;;12.70;99.90;;;;;;4995188;28;20181;-63
2023/09/22 04:35:28;;;;;;;5.20;3.00;;;12.80;99.90;;;;;;4995725;28;20172;-65
2023/09/22 04:37:53;;;;;;;5.28;3.40;;;12.80;99.90;;;;;;4995254;28;20193;-63
2023/09/22 04:40:27;;;;;;;3.65;3.00;;;12.80;99.90;;;;;;4995373;28;20179;-63
2023/09/22 04:42:53;;;;;;;4.95;3.22;;;12.80;99.90;;;;;;4995428;28;20183;-63
2023/09/22 04:45:21;;;;;;;5.22;3.15;;;12.80;99.90;;;;;;4995514;28;20672;-63
2023/09/22 04:47:47;;;;;;;3.22;2.90;;;12.70;99.90;;;;;;4994928;28;20669;-64
2023/09/22 04:50:17;;;;;;;4.28;3.15;;;12.80;99.90;;;;;;4995291;28;20250;-64
2023/09/22 04:52:49;;;;;;;4.22;3.13;;;12.70;99.90;;;;;;4995618;28;20165;-63
2023/09/22 04:55:16;;;;;;;4.95;3.03;;;12.70;99.90;;;;;;4977681;28;20177;-63
2023/09/22 04:57:43;;;;;;;4.25;2.80;;;12.70;99.90;;;;;;4995033;28;20207;-63
2023/09/22 05:00:16;;;;;;;5.90;3.20;;;12.70;99.90;;;;;;4995003;28;20235;-63
2023/09/22 05:02:45;;;;;;;5.60;3.20;;;12.60;99.90;;;;;;4994766;28;20160;-63
2023/09/22 05:05:18;;;;;;;5.25;2.92;;;12.60;99.90;;;;;;4995449;28;20187;-63
2023/09/22 05:07:45;;;;;;;3.30;3.00;;;12.60;99.90;;;;;;4995053;28;20240;-63
2023/09/22 05:10:11;;;;;;;3.97;3.25;;;12.70;99.90;;;;;;4995525;28;20661;-60
2023/09/22 05:12:37;;;;;;;3.25;2.60;;;12.70;99.90;;;;;;4977168;28;20554;-60
2023/09/22 05:15:04;;;;;;;3.67;2.83;;;12.70;99.90;;;;;;4994619;28;20169;-60
2023/09/22 05:17:30;;;;;;;3.03;2.78;;;12.70;99.90;;;;;;4994428;28;20196;-59
2023/09/22 05:19:58;;;;;;;4.15;2.80;;;12.80;99.90;;;;;;4994490;28;20181;-59
2023/09/22 05:22:24;;;;;;;3.65;2.90;;;12.80;99.90;;;;;;4977169;28;20255;-60
2023/09/22 05:24:50;;;;;;;4.32;2.78;;;12.80;99.90;;;;;;4994499;28;20185;-60
2023/09/22 05:27:16;;;;;;;7.53;3.10;;;12.90;99.90;;;;;;4994351;28;20183;-60
2023/09/22 05:29:41;;;;;;;7.25;2.90;;;12.90;99.90;;;;;;4976902;28;20204;-59
2023/09/22 05:32:08;;;;;;;3.25;2.53;;;13.00;99.90;;;;;;4994681;28;20180;-59
2023/09/22 05:34:34;;;;;;;3.10;2.67;;;13.00;99.90;;;;;;4994360;28;20176;-61
2023/09/22 05:37:03;;;;;;;4.53;2.70;;;13.00;99.90;;;;;;4994565;28;20289;-59
2023/09/22 05:39:28;;;;;;;3.97;2.80;;;13.00;99.90;;;;;;4993897;28;20204;-59
2023/09/22 05:41:54;;;;;;;4.40;3.00;;;13.10;99.90;;;;;;4994162;28;20603;-59
2023/09/22 05:44:20;;;;;;;4.43;2.92;;;13.00;99.90;;;;;;4994361;28;20259;-60
2023/09/22 05:46:49;;;;;;;6.30;2.80;;;13.00;99.90;;;;;;4994219;28;20625;-59
2023/09/22 05:49:15;;;;;;;7.70;3.20;;;13.00;99.90;;;;;;4993788;28;20211;-59
2023/09/22 05:51:41;;;;;;;4.75;3.13;;;13.00;99.90;;;;;;4994196;28;20664;-61
2023/09/22 05:54:08;;;;;;;4.28;3.00;;;13.00;99.90;;;;;;4994350;28;20172;-59
2023/09/22 05:56:35;;;;;;;7.07;3.40;;;13.10;99.90;;;;;;4994151;28;20248;-60
2023/09/22 05:59:01;;;;;;;4.75;2.90;;;13.00;99.90;;;;;;4993900;28;20563;-59
2023/09/22 06:01:27;;;;;;;5.68;2.72;;;13.00;99.90;;;;;;4994025;28;20259;-60
2023/09/22 06:03:53;;;;;;;4.65;3.10;;;13.00;99.90;;;;;;4993702;28;20226;-60
2023/09/22 06:06:19;;;;;;;5.15;2.70;;;13.00;99.90;;;;;;4994255;28;20168;-59
2023/09/22 06:08:46;;;;;;;4.63;2.58;;;13.10;99.90;;;;;;4993690;28;20579;-60
2023/09/22 06:11:13;;;;;;;9.88;2.65;;;13.00;99.90;;;;;;4994388;28;20188;-59
2023/09/22 06:13:39;;;;;;;4.95;2.85;;;13.00;99.90;;;;;;4993919;28;20175;-60
2023/09/22 06:16:05;;;;;;;6.22;2.65;;;13.10;99.90;;;;;;4993861;28;20563;-58
2023/09/22 06:18:31;;;;;;;4.00;2.88;;;13.00;99.90;;;;;;4993409;28;20193;-59
2023/09/22 06:20:59;;;;;;;2.83;2.58;;;13.10;99.90;;;;;;4976305;28;20184;-60
2023/09/22 06:23:25;;;;;;;3.92;2.53;;;13.20;99.90;;;;;;4993755;28;20557;-59
2023/09/22 06:25:54;;;;;;;2.83;2.45;;;13.20;99.90;;;;;;4994026;28;20196;-59
2023/09/22 06:28:20;;;;;;;7.50;2.58;;;13.30;99.90;;;;;;4993573;28;20243;-59
2023/09/22 06:30:47;;;;;;;4.65;2.90;;;13.30;99.90;;;;;;4976245;28;20208;-59
2023/09/22 06:33:16;;;;;;;5.63;2.90;;;13.30;99.90;;;;;;4993615;28;20176;-59
2023/09/22 06:35:43;;;;;;;6.78;3.00;;;13.40;99.90;;;;;;4994262;28;20564;-59
2023/09/22 06:38:16;;;;;;;3.63;2.50;;;13.50;99.90;;;;;;4993522;28;20243;-59
2023/09/22 06:40:44;;;;;;;4.18;2.42;;;13.50;99.90;;;;;;4976498;28;20230;-59
2023/09/22 06:43:11;;;;;;;4.18;2.65;;;13.50;99.90;;;;;;5011263;28;20184;-59
2023/09/22 06:45:39;;;;;;;5.22;2.83;;;13.50;99.90;;;;;;5013315;28;20525;-61
2023/09/22 06:48:07;;;;;;;3.95;2.50;;;13.50;99.90;;;;;;5012913;28;20202;-59
2023/09/22 06:50:35;;;;;;;2.85;2.53;;;13.60;99.90;;;;;;5013395;28;20199;-60
2023/09/22 06:53:02;;;;;;;2.78;2.58;;;13.50;99.90;;;;;;5016411;28;20238;-59
2023/09/22 06:55:30;;;;;;;4.55;2.47;;;13.50;99.90;;;;;;5017127;28;20179;-60
2023/09/22 06:57:58;;;;;;;3.38;2.50;;;13.50;99.90;;;;;;5016770;28;20196;-61
2023/09/22 07:00:28;;;;;;;6.63;2.40;;;13.50;99.90;;;;;;5016709;28;20226;-59
2023/09/22 07:02:54;;;;;;;4.13;2.40;;;13.50;99.90;;;;;;4998937;28;20196;-59
2023/09/22 07:05:20;;;;;;;2.60;2.40;;;13.60;99.90;;;;;;5017522;28;20636;-59
2023/09/22 07:07:47;;;;;;;5.50;2.33;;;13.60;99.90;;;;;;5015263;28;20342;-59
2023/09/22 07:10:13;;;;;;;3.88;2.88;;;13.70;99.90;;;;;;5016526;28;20204;-59
2023/09/22 07:12:39;;;;;;;3.78;2.40;;;13.70;99.90;;;;;;5003291;28;20552;-59
2023/09/22 07:15:06;;;;;;;6.07;2.20;;;13.80;99.90;;;;;;4996973;28;20176;-59
2023/09/22 07:17:32;;;;;;;3.10;2.15;;;13.80;99.90;;;;;;4996784;28;20193;-61
2023/09/22 07:20:00;;;;;;;2.42;2.22;;;13.80;99.90;;;;;;4996714;28;20195;-60
2023/09/22 07:22:26;;;;;;;4.00;2.22;;;13.90;99.90;;;;;;4997477;28;20220;-58
2023/09/22 07:24:52;;;;;;;2.50;2.30;;;13.90;99.90;;;;;;4997388;28;20633;-59
2023/09/22 07:27:18;;;;;;;5.63;2.53;;;14.00;99.90;;;;;;4997593;28;20188;-63
2023/09/22 07:29:45;;;;;;;3.13;2.45;;;14.00;99.90;;;;;;4996655;28;20700;-63
2023/09/22 07:32:10;;;;;;;3.17;2.38;;;14.00;99.90;;;;;;4979145;28;20172;-64
2023/09/22 07:34:36;;;;;;;5.22;2.60;;;14.10;99.90;;;;;;4996496;28;20184;-63
2023/09/22 07:37:02;;;;;;;3.28;2.38;;;14.10;99.90;;;;;;4997233;28;20179;-63
2023/09/22 07:39:28;;;;;;;2.92;2.35;;;14.10;99.90;;;;;;4996580;28;20673;-63
2023/09/22 07:41:53;;;;;;;3.38;2.50;;;14.10;99.90;;;;;;4997016;28;20185;-63
2023/09/22 07:44:21;;;;;;;5.50;2.75;;;14.20;99.90;;;;;;4997115;28;20530;-63
2023/09/22 07:46:48;;;;;;;5.07;2.40;;;14.20;99.90;;;;;;4997035;28;20196;-64
2023/09/22 07:49:15;;;;;;;3.78;2.40;;;14.20;99.90;;;;;;4996071;28;20204;-63
2023/09/22 07:51:41;;;;;;;6.53;2.80;;;14.20;99.90;;;;;;4996456;28;20199;-63
2023/09/22 07:54:08;;;;;;;4.90;2.35;;;14.20;99.90;;;;;;4997102;28;20699;-64
2023/09/22 07:56:34;;;;;;;3.95;2.58;;;14.20;99.90;;;;;;4996462;28;20297;-64
2023/09/22 07:59:02;;;;;;;3.70;2.30;;;14.30;99.90;;;;;;4996271;28;20229;-63
2023/09/22 08:01:28;;;;;;;3.08;2.60;;;14.30;99.90;;;;;;4996244;28;20218;-63
2023/09/22 08:03:53;;;;;;;2.53;2.33;;;14.30;99.90;;;;;;4977629;28;20208;-63
2023/09/22 08:06:19;;;;;;;2.97;2.50;;;14.40;99.90;;;;;;4996109;28;20188;-63
2023/09/22 08:08:49;;;;;;;2.97;2.20;;;14.40;99.90;;;;;;4996118;28;20227;-63
2023/09/22 08:11:17;;;;;;;4.05;2.70;;;14.60;99.90;;;;;;4996160;28;20744;-63
2023/09/22 08:13:45;;;;;;;3.47;2.05;;;14.70;99.90;;;;;;4996167;28;20173;-63
2023/09/22 08:16:12;;;;;;;5.45;2.40;;;14.70;99.90;;;;;;4995765;28;20264;-64
2023/09/22 08:18:40;;;;;;;2.70;2.33;;;14.70;99.90;;;;;;4995472;28;20204;-63
2023/09/22 08:21:09;;;;;;;3.50;2.20;;;14.80;99.90;;;;;;4995659;28;20210;-63
2023/09/22 08:23:34;;;;;;;2.72;2.28;;;14.80;99.90;;;;;;4995652;28;20176;-63
2023/09/22 08:26:05;;;;;;;3.92;2.28;;;15.00;99.90;;;;;;4995734;28;20664;-63
2023/09/22 08:28:32;;;;;;;3.95;2.20;;;15.20;99.90;;;;;;4978211;28;20204;-63
2023/09/22 08:30:58;;;;;;;4.05;2.17;;;15.40;99.90;;;;;;4995567;28;20196;-64
2023/09/22 08:33:24;;;;;;;5.13;2.58;;;15.60;99.90;;;;;;4995448;28;20179;-63
2023/09/22 08:35:49;;;;;;;3.05;2.40;;;15.60;99.90;;;;;;4995432;28;20251;-63
2023/09/22 08:38:15;;;;;;;2.88;2.03;;;15.60;99.90;;;;;;4995301;28;20196;-63
2023/09/22 08:40:46;;;;;;;2.03;1.90;;;15.60;99.90;;;;;;4995394;28;20207;-63
2023/09/22 08:43:12;;;;;;;2.38;2.17;;;15.60;99.90;;;;;;4995474;28;20184;-63
2023/09/22 08:45:38;;;;;;;2.38;2.17;;;15.50;99.90;;;;;;4995475;28;20270;-63
2023/09/22 08:48:05;;;;;;;4.10;2.10;;;15.50;99.90;;;;;;4994917;28;20532;-60
2023/09/22 08:50:31;;;;;;;3.08;2.10;;;15.60;99.90;;;;;;4977651;28;20207;-63
2023/09/22 08:52:57;;;;;;;2.45;2.20;;;15.80;99.90;;;;;;4995689;28;20689;-63
2023/09/22 08:55:23;;;;;;;2.33;2.13;;;15.90;99.90;;;;;;4995100;28;20176;-63
2023/09/22 08:57:51;;;;;;;2.78;2.20;;;15.90;99.90;;;;;;4994926;28;20196;-63
2023/09/22 09:00:21;;;;;;;2.40;2.17;;;15.90;99.90;;;;;;4995123;28;20256;-63
2023/09/22 09:02:49;;;;;;;2.65;2.10;;;15.90;99.90;;;;;;4977299;28;20276;-63
2023/09/22 09:05:19;;;;;;;2.72;2.20;;;16.10;99.90;;;;;;4994692;28;20176;-63
2023/09/22 09:07:46;;;;;;;3.20;2.22;;;16.40;99.90;;;;;;4994668;28;20222;-63
2023/09/22 09:10:31;;;;;;;4.00;2.08;;;16.50;99.90;;;;;;4994881;28;20216;-63
2023/09/22 09:13:05;;;;;;;3.22;2.15;;;16.70;99.90;;;;;;4977238;28;20311;-63
2023/09/22 09:15:45;;;;;;;3.63;2.00;;;16.70;99.90;;;;;;4994778;28;20567;-63
2023/09/22 09:18:13;;;;;;;4.88;2.20;;;16.60;99.90;;;;;;4994464;28;20614;-59
2023/09/22 09:20:41;;;;;;;5.47;2.38;;;16.40;99.90;;;;;;4994923;28;20172;-63
2023/09/22 09:23:21;;;;;;;3.65;1.95;;;16.20;99.90;;;;;;4994664;28;20532;-63
2023/09/22 09:25:50;;;;;;;3.83;2.40;;;16.00;99.90;;;;;;4994800;28;20183;-64
2023/09/22 09:28:17;;;;;;;2.30;1.88;;;16.00;99.90;;;;;;4995021;28;20540;-63
2023/09/22 09:30:55;;;;;;;3.90;2.47;;;16.00;99.90;;;;;;4976959;28;20258;-63
2023/09/22 09:33:27;;;;;;;3.47;2.05;;;15.90;99.90;;;;;;4994258;28;20173;-63
2023/09/22 09:35:54;;;;;;;3.92;2.03;;;16.00;99.90;;;;;;4994406;28;20176;-63
2023/09/22 09:38:23;;;;;;;4.10;2.45;;;16.00;99.90;;;;;;4994502;28;20196;-63
2023/09/22 09:40:50;;;;;;;4.47;2.25;;;16.10;99.90;;;;;;4994462;28;20176;-63
2023/09/22 09:43:16;;;;;;;3.65;2.20;;;16.10;99.90;;;;;;4994191;28;20662;-63
2023/09/22 09:45:43;;;;;;;3.63;2.40;;;16.10;99.90;;;;;;4994316;28;20188;-63
2023/09/22 09:48:18;;;;;;;3.08;2.10;;;16.00;99.90;;;;;;4976833;28;20673;-63
2023/09/22 09:50:53;;;;;;;4.43;2.28;;;15.90;99.90;;;;;;4994304;28;20192;-62
2023/09/22 09:53:31;;;;;;;5.22;2.28;;;15.80;99.90;;;;;;4976650;28;20288;-62
2023/09/22 09:56:05;;;;;;;3.15;2.22;;;15.70;99.90;;;;;;4994050;28;20156;-62
2023/09/22 09:58:32;;;;;;;3.05;2.17;;;15.70;99.90;;;;;;4994283;28;20188;-62
2023/09/22 10:01:00;;;;;;;2.38;2.10;;;15.70;99.90;;;;;;4994129;28;20176;-62
2023/09/22 10:03:27;;;;;;;3.33;2.25;;;15.70;99.90;;;;;;4994339;28;20181;-62
2023/09/22 10:05:55;;;;;;;4.25;2.33;;;15.70;99.90;;;;;;4994043;28;20180;-62
2023/09/22 10:08:23;;;;;;;6.30;2.15;;;15.60;99.90;;;;;;4993762;28;20215;-62
2023/09/22 10:10:54;;;;;;;5.72;2.40;;;15.60;99.90;;;;;;4993984;28;20247;-62
2023/09/22 10:13:21;;;;;;;2.80;2.30;;;15.50;99.90;;;;;;4993816;28;20180;-62
2023/09/22 10:15:54;;;;;;;3.50;2.45;;;15.50;99.90;;;;;;4993789;28;20219;-62
2023/09/22 10:18:48;;;;;;;3.05;2.40;;;15.50;99.90;;;;;;4992478;28;20200;-58
2023/09/22 10:21:30;;;;;;;4.88;2.80;;;15.60;99.90;;;;;;4976455;28;20200;-62
2023/09/22 10:24:26;;;;;;;5.20;2.22;;;15.70;99.90;;;;;;4993848;28;20708;-63
2023/09/22 10:26:59;;;;;;;5.10;2.33;;;16.00;99.90;;;;;;4977950;28;20656;-62
2023/09/22 10:29:37;;;;;;;2.30;2.10;;;16.10;99.90;;;;;;4998039;28;20192;-63
2023/09/22 10:32:16;;;;;;;2.78;2.00;;;16.30;99.90;;;;;;4998424;28;20153;-63
2023/09/22 10:34:49;;;;;;;3.15;2.33;;;16.40;99.90;;;;;;4997811;28;20199;-63
2023/09/22 10:37:18;;;;;;;3.35;2.35;;;16.50;99.90;;;;;;4997646;28;20176;-62
2023/09/22 10:39:50;;;;;;;2.10;1.92;;;16.50;99.90;;;;;;4997903;28;20176;-59
2023/09/22 10:42:18;;;;;;;3.08;2.15;;;16.50;99.90;;;;;;4997478;28;20188;-59
2023/09/22 10:45:05;;;;;;;3.65;2.30;;;16.40;99.90;;;;;;4997431;28;20168;-62
2023/09/22 10:47:54;;;;;;;4.38;2.25;;;16.40;99.90;;;;;;4997490;28;20558;-63
2023/09/22 10:50:31;;;;;;;2.53;2.25;;;16.50;99.90;;;;;;4997160;28;20192;-62
2023/09/22 10:52:57;;;;;;;2.83;2.10;;;16.50;99.90;;;;;;4997627;28;20152;-62
2023/09/22 10:55:31;;;;;;;2.95;2.20;;;16.40;99.90;;;;;;4980000;28;20184;-62
2023/09/22 10:57:58;;;;;;;2.58;2.20;;;16.40;99.90;;;;;;4997235;28;20224;-63
2023/09/22 11:00:24;;;;;;;4.15;2.60;;;16.40;99.90;;;;;;4997326;28;20248;-62
2023/09/22 11:02:50;;;;;;;3.90;2.22;;;16.30;99.90;;;;;;4997175;28;20311;-62
2023/09/22 11:05:17;;;;;;;2.25;1.95;;;16.40;99.90;;;;;;4996762;28;20180;-61
2023/09/22 11:07:43;;;;;;;3.20;2.15;;;16.40;99.90;;;;;;4997556;28;20266;-63
2023/09/22 11:10:18;;;;;;;2.83;2.15;;;16.30;99.90;;;;;;4979478;28;20611;-62
2023/09/22 11:12:49;;;;;;;5.70;2.58;;;16.30;99.90;;;;;;4979606;28;20275;-62
2023/09/22 11:15:15;;;;;;;2.30;2.10;;;16.30;99.90;;;;;;4997115;28;20537;-62
2023/09/22 11:17:45;;;;;;;3.55;2.38;;;16.30;99.90;;;;;;4979712;28;20611;-62
2023/09/22 11:20:22;;;;;;;4.35;2.15;;;16.30;99.90;;;;;;4997008;28;20165;-62
2023/09/22 11:22:49;;;;;;;3.78;2.63;;;16.40;99.90;;;;;;4997037;28;20160;-62
2023/09/22 11:25:15;;;;;;;6.15;2.78;;;16.60;99.90;;;;;;4996872;28;20177;-62
2023/09/22 11:27:52;;;;;;;3.35;2.20;;;16.60;99.90;;;;;;4997968;28;20288;-61
2023/09/22 11:30:25;;;;;;;2.63;2.15;;;16.70;99.90;;;;;;4978989;28;20196;-60
2023/09/22 11:32:51;;;;;;;2.15;1.95;;;16.80;99.90;;;;;;4996963;28;20179;-61
2023/09/22 11:35:40;;;;;;;3.30;2.25;;;16.90;99.90;;;;;;4996559;28;20164;-60
2023/09/22 11:38:27;;;;;;;2.50;2.13;;;17.20;99.90;;;;;;4995246;28;20217;-59
2023/09/22 11:41:17;;;;;;;3.53;2.22;;;17.30;99.90;;;;;;4996899;28;20367;-60
2023/09/22 11:43:45;;;;;;;3.55;2.30;;;17.40;99.90;;;;;;4989424;28;20271;-60
2023/09/22 11:46:15;;;;;;;2.15;1.95;;;17.30;99.90;;;;;;4997381;28;20179;-60
2023/09/22 11:48:56;;;;;;;2.88;2.03;;;17.30;99.90;;;;;;4978570;28;20197;-60
2023/09/22 11:51:22;;;;;;;3.13;2.08;;;17.20;99.90;;;;;;4979214;28;20192;-60
2023/09/22 11:53:48;;;;;;;2.47;2.00;;;17.50;99.90;;;;;;4978918;28;20594;-60
2023/09/22 11:56:14;;;;;;;3.13;2.00;;;17.70;99.90;;;;;;4996448;28;20177;-60
2023/09/22 11:58:41;;;;;;;2.67;2.10;;;17.80;99.90;;;;;;4995026;28;20204;-60
2023/09/22 12:01:09;;;;;;;2.92;2.10;;;17.80;99.90;;;;;;4978607;28;20199;-59
2023/09/22 12:03:35;;;;;;;2.72;2.08;;;17.90;99.90;;;;;;4996346;28;20594;-59
2023/09/22 12:06:02;;;;;;;3.15;2.20;;;17.90;99.90;;;;;;4995934;28;20211;-59
2023/09/22 12:08:29;;;;;;;3.78;2.33;;;17.80;99.90;;;;;;4995900;28;20688;-59
2023/09/22 12:10:55;;;;;;;2.55;2.00;;;17.50;99.90;;;;;;4978762;28;20216;-59
2023/09/22 12:13:21;;;;;;;2.72;2.00;;;17.40;99.90;;;;;;4996165;28;20180;-59
2023/09/22 12:15:46;;;;;;;3.20;2.05;;;17.40;99.90;;;;;;4995934;28;20519;-59
2023/09/22 12:18:12;;;;;;;2.65;2.20;;;17.30;99.90;;;;;;4995696;28;20727;-59
2023/09/22 12:20:38;;;;;;;3.00;2.00;;;17.30;99.90;;;;;;4995613;28;20669;-59
2023/09/22 12:23:03;;;;;;;1.98;1.88;;;17.20;99.90;;;;;;4995685;28;20176;-59
2023/09/22 12:25:29;;;;;;;4.05;2.38;;;17.20;99.90;;;;;;4995722;28;20633;-59
2023/09/22 12:27:55;;;;;;;5.68;2.00;;;17.10;99.90;;;;;;4995718;28;20212;-61
2023/09/22 12:30:21;;;;;;;3.13;2.15;;;17.10;99.90;;;;;;4994192;28;20211;-59
2023/09/22 12:32:46;;;;;;;4.40;2.10;;;17.10;99.90;;;;;;4995691;28;20199;-59
2023/09/22 12:35:12;;;;;;;3.20;2.03;;;17.20;99.90;;;;;;4995258;28;20176;-59
2023/09/22 12:37:38;;;;;;;2.08;1.80;;;17.70;99.90;;;;;;4995630;28;20192;-59
2023/09/22 12:40:04;;;;;;;2.47;2.00;;;18.10;99.90;;;;;;4995588;28;20235;-59
2023/09/22 12:42:31;;;;;;;3.60;2.05;;;18.50;99.90;;;;;;4995695;28;20194;-59
2023/09/22 12:44:58;;;;;;;3.58;1.90;;;18.80;99.90;;;;;;4995365;28;20172;-59
2023/09/22 12:47:24;;;;;;;2.35;2.10;;;18.50;99.90;;;;;;4995191;28;20177;-59
2023/09/22 12:49:50;;;;;;;2.10;1.90;;;18.20;99.90;;;;;;4976994;28;20196;-59
2023/09/22 12:52:16;;;;;;;2.60;2.10;;;18.00;99.90;;;;;;4995132;28;20218;-59
2023/09/22 12:54:41;;;;;;;2.67;2.00;;;18.00;99.90;;;;;;4995453;28;20172;-59